createdAt,value
2016-09-05T00:00:48.460Z,96.94
2016-09-05T00:01:48.487Z,97.14
2016-09-05T00:02:48.502Z,96.75
2016-09-05T00:03:48.525Z,98
2016-09-05T00:04:48.548Z,98.19
2016-09-05T00:05:48.565Z,98.1
2016-09-05T00:06:48.583Z,98.28
2016-09-05T00:07:48.601Z,97.8
2016-09-05T00:08:48.631Z,98
2016-09-05T00:09:48.643Z,98
2016-09-05T00:10:48.670Z,98.47
2016-09-05T00:11:48.684Z,98
2016-09-05T00:12:48.707Z,98.19
2016-09-05T00:13:48.735Z,97.71
2016-09-05T00:14:48.759Z,97.42
2016-09-05T00:15:48.770Z,97.42
2016-09-05T00:16:48.793Z,97.42
2016-09-05T00:17:48.813Z,98
2016-09-05T00:18:48.831Z,97.71
2016-09-05T00:19:48.855Z,98
2016-09-05T00:20:48.876Z,97.42
2016-09-05T00:21:48.893Z,97.04
2016-09-05T00:22:48.925Z,97.23
2016-09-05T00:23:48.938Z,97.14
2016-09-05T00:24:48.954Z,97.33
2016-09-05T00:25:48.975Z,97.52
2016-09-05T00:26:49.001Z,97.9
2016-09-05T00:27:49.018Z,97.9
2016-09-05T00:28:49.041Z,97.61
2016-09-05T00:29:49.060Z,97.33
2016-09-05T00:30:49.081Z,97.8
2016-09-05T00:31:49.110Z,97.71
2016-09-05T00:32:49.120Z,97.42
2016-09-05T00:33:49.145Z,97.8
2016-09-05T00:34:49.166Z,97.52
2016-09-05T00:35:49.185Z,97.9
2016-09-05T00:36:49.199Z,97.61
2016-09-05T00:37:49.228Z,97.23
2016-09-05T00:38:49.244Z,96.84
2016-09-05T00:39:49.265Z,97.42
2016-09-05T00:40:49.282Z,97.04
2016-09-05T00:41:49.306Z,97.04
2016-09-05T00:42:49.330Z,96.47
2016-09-05T00:43:49.345Z,96.66
2016-09-05T00:44:49.367Z,96.47
2016-09-05T00:45:49.397Z,96.56
2016-09-05T00:46:49.411Z,96.27
2016-09-05T00:47:49.438Z,96.75
2016-09-05T00:48:49.456Z,96.94
2016-09-05T00:49:49.476Z,96.66
2016-09-05T00:50:49.492Z,96.27
2016-09-05T00:51:49.518Z,96.56
2016-09-05T00:52:49.535Z,95.89
2016-09-05T00:53:49.560Z,96.18
2016-09-05T00:54:49.575Z,95.79
2016-09-05T00:55:49.596Z,96.47
2016-09-05T00:56:49.620Z,96.18
2016-09-05T00:57:49.640Z,95.7
2016-09-05T00:58:49.659Z,96.08
2016-09-05T00:59:49.679Z,95.7
2016-09-05T01:00:49.696Z,95.7
2016-09-05T01:01:49.727Z,96.47
2016-09-05T01:02:49.744Z,95.89
2016-09-05T01:03:49.775Z,95.51
2016-09-05T01:04:49.776Z,96.27
2016-09-05T01:05:49.796Z,96.66
2016-09-05T01:06:49.821Z,96.27
2016-09-05T01:07:49.841Z,96.84
2016-09-05T01:08:49.865Z,96.47
2016-09-05T01:09:49.880Z,96.47
2016-09-05T01:10:49.907Z,97.23
2016-09-05T01:11:49.921Z,97.23
2016-09-05T01:12:49.948Z,96.94
2016-09-05T01:13:49.969Z,97.42
2016-09-05T01:14:49.985Z,97.23
2016-09-05T01:15:50.004Z,96.37
2016-09-05T01:16:50.024Z,97.04
2016-09-05T01:17:50.050Z,97.14
2016-09-05T01:18:50.068Z,97.23
2016-09-05T01:19:50.090Z,97.33
2016-09-05T01:20:50.113Z,97.23
2016-09-05T01:21:50.131Z,97.8
2016-09-05T01:22:50.165Z,97.42
2016-09-05T01:23:50.222Z,97.33
2016-09-05T01:24:50.224Z,96.84
2016-09-05T01:25:50.258Z,97.04
2016-09-05T01:26:50.259Z,96.84
2016-09-05T01:27:50.305Z,97.04
2016-09-05T01:28:50.324Z,97.04
2016-09-05T01:29:50.323Z,97.04
2016-09-05T01:30:50.322Z,96.66
2016-09-05T01:31:50.336Z,95.89
2016-09-05T01:32:50.357Z,96.75
2016-09-05T01:33:50.378Z,97.14
2016-09-05T01:34:50.407Z,97.42
2016-09-05T01:35:50.411Z,97.52
2016-09-05T01:36:50.434Z,97.14
2016-09-05T01:37:50.458Z,96.75
2016-09-05T01:38:50.480Z,96.75
2016-09-05T01:39:50.498Z,96.94
2016-09-05T01:40:50.517Z,97.14
2016-09-05T01:41:50.538Z,97.04
2016-09-05T01:42:50.552Z,96.56
2016-09-05T01:43:50.578Z,96.84
2016-09-05T01:44:50.603Z,96.56
2016-09-05T01:45:50.619Z,97.04
2016-09-05T01:46:50.640Z,96.75
2016-09-05T01:47:50.660Z,96.84
2016-09-05T01:48:50.678Z,96.18
2016-09-05T01:49:50.703Z,96.47
2016-09-05T01:50:50.724Z,96.08
2016-09-05T01:51:50.747Z,96.27
2016-09-05T01:52:50.762Z,95.7
2016-09-05T01:53:50.791Z,96.08
2016-09-05T01:54:50.806Z,96.08
2016-09-05T01:55:50.823Z,96.27
2016-09-05T01:56:50.842Z,96.47
2016-09-05T01:57:50.874Z,96.66
2016-09-05T01:58:50.886Z,96.08
2016-09-05T01:59:50.908Z,96.18
2016-09-05T02:00:50.930Z,96.27
2016-09-05T02:01:50.951Z,95.79
2016-09-05T02:02:50.971Z,96.08
2016-09-05T02:03:50.983Z,95.98
2016-09-05T02:04:51.004Z,96.37
2016-09-05T02:05:51.036Z,96.37
2016-09-05T02:06:51.050Z,96.27
2016-09-05T02:07:51.068Z,96.08
2016-09-05T02:08:51.088Z,95.79
2016-09-05T02:09:51.128Z,96.27
2016-09-05T02:10:51.132Z,96.18
2016-09-05T02:11:51.152Z,96.37
2016-09-05T02:12:51.172Z,96.37
2016-09-05T02:13:51.184Z,96.56
2016-09-05T02:14:51.208Z,96.7
2016-09-05T02:15:51.240Z,96.37
2016-09-05T02:16:51.252Z,96.42
2016-09-05T02:17:51.278Z,96.22
2016-09-05T02:18:51.288Z,96.18
2016-09-05T02:19:51.310Z,95.7
2016-09-05T02:20:51.338Z,95.6
2016-09-05T02:21:51.356Z,95.6
2016-09-05T02:22:51.372Z,96.08
2016-09-05T02:23:51.396Z,96.27
2016-09-05T02:24:51.416Z,95.7
2016-09-05T02:25:51.441Z,95.56
2016-09-05T02:26:51.458Z,95.6
2016-09-05T02:27:51.475Z,96.08
2016-09-05T02:28:51.496Z,95.7
2016-09-05T02:29:51.519Z,95.7
2016-09-05T02:30:51.534Z,96.18
2016-09-05T02:31:51.559Z,96.27
2016-09-05T02:32:51.582Z,96.37
2016-09-05T02:33:51.596Z,96.27
2016-09-05T02:34:51.613Z,96.03
2016-09-05T02:35:51.642Z,95.94
2016-09-05T02:36:51.658Z,96.03
2016-09-05T02:37:51.675Z,96.08
2016-09-05T02:38:51.702Z,96.13
2016-09-05T02:39:51.725Z,96.22
2016-09-05T02:40:51.740Z,95.36
2016-09-05T02:41:51.755Z,95.65
2016-09-05T02:42:51.780Z,95.41
2016-09-05T02:43:51.801Z,94.74
2016-09-05T02:44:51.822Z,94.84
2016-09-05T02:45:51.846Z,95.03
2016-09-05T02:46:51.862Z,95.22
2016-09-05T02:47:51.882Z,94.64
2016-09-05T02:48:51.899Z,94.64
2016-09-05T02:49:51.921Z,94.98
2016-09-05T02:50:51.943Z,94.35
2016-09-05T02:51:51.961Z,94.64
2016-09-05T02:52:51.981Z,94.93
2016-09-05T02:53:52.024Z,95.03
2016-09-05T02:54:52.027Z,95.51
2016-09-05T02:55:52.041Z,94.64
2016-09-05T02:56:52.062Z,94.84
2016-09-05T02:57:52.088Z,95.03
2016-09-05T02:58:52.106Z,94.45
2016-09-05T02:59:52.133Z,94.74
2016-09-05T03:00:52.145Z,94.74
2016-09-05T03:01:52.176Z,94.74
2016-09-05T03:02:52.186Z,94.07
2016-09-05T03:03:52.213Z,94.55
2016-09-05T03:04:52.234Z,94.64
2016-09-05T03:05:52.249Z,94.74
2016-09-05T03:06:52.268Z,94.74
2016-09-05T03:07:52.296Z,94.74
2016-09-05T03:08:52.314Z,94.55
2016-09-05T03:09:52.332Z,94.64
2016-09-05T03:10:52.348Z,95.12
2016-09-05T03:11:52.375Z,94.84
2016-09-05T03:12:52.392Z,95.03
2016-09-05T03:13:52.414Z,95.79
2016-09-05T03:14:52.429Z,95.89
2016-09-05T03:15:52.454Z,96.18
2016-09-05T03:16:52.495Z,96.84
2016-09-05T03:17:52.495Z,97.04
2016-09-05T03:18:52.516Z,97.18
2016-09-05T03:19:52.534Z,97.47
2016-09-05T03:20:52.558Z,97.75
2016-09-05T03:21:52.572Z,97.95
2016-09-05T03:22:52.591Z,98.14
2016-09-05T03:23:52.620Z,98.05
2016-09-05T03:24:52.635Z,99
2016-09-05T03:25:52.654Z,99.58
2016-09-05T03:26:52.676Z,99.38
2016-09-05T03:27:52.698Z,99.67
2016-09-05T03:28:52.719Z,99.99
2016-09-05T03:29:52.738Z,99.48
2016-09-05T03:30:52.760Z,99.1
2016-09-05T03:31:52.779Z,99.19
2016-09-05T03:32:52.797Z,99.19
2016-09-05T03:33:52.822Z,99.29
2016-09-05T03:34:52.838Z,98.62
2016-09-05T03:35:52.857Z,98.81
2016-09-05T03:36:52.877Z,98.43
2016-09-05T03:37:52.901Z,98.81
2016-09-05T03:38:52.921Z,98.91
2016-09-05T03:39:52.942Z,98.14
2016-09-05T03:40:52.961Z,98.62
2016-09-05T03:41:52.982Z,97.75
2016-09-05T03:42:53.008Z,97.75
2016-09-05T03:43:53.017Z,98.62
2016-09-05T03:44:53.045Z,98.71
2016-09-05T03:45:53.078Z,98.43
2016-09-05T03:46:53.080Z,98.33
2016-09-05T03:47:53.109Z,98.43
2016-09-05T03:48:53.118Z,98.43
2016-09-05T03:49:53.159Z,98.05
2016-09-05T03:50:53.165Z,98.52
2016-09-05T03:51:53.187Z,98.43
2016-09-05T03:52:53.202Z,98.05
2016-09-05T03:53:53.219Z,98.43
2016-09-05T03:54:53.246Z,98.71
2016-09-05T03:55:53.271Z,98.91
2016-09-05T03:56:53.285Z,98.62
2016-09-05T03:57:53.314Z,98.91
2016-09-05T03:58:53.324Z,99.29
2016-09-05T03:59:53.346Z,99.19
2016-09-05T04:01:08.213Z,99.19
2016-09-05T04:01:53.382Z,99.19
2016-09-05T04:02:53.407Z,98.91
2016-09-05T04:03:53.425Z,98.52
2016-09-05T04:04:53.446Z,98.91
2016-09-05T04:05:53.471Z,99
2016-09-05T04:06:53.490Z,98.62
2016-09-05T04:07:53.505Z,97.95
2016-09-05T04:08:53.527Z,98.43
2016-09-05T04:09:53.550Z,98.52
2016-09-05T04:10:53.566Z,98.24
2016-09-05T04:11:53.595Z,97.95
2016-09-05T04:12:53.605Z,97.75
2016-09-05T04:13:53.629Z,98.14
2016-09-05T04:14:53.649Z,98.05
2016-09-05T04:15:53.673Z,98.71
2016-09-05T04:16:53.688Z,97.95
2016-09-05T04:17:53.718Z,98.43
2016-09-05T04:18:53.730Z,98.71
2016-09-05T04:19:53.746Z,98.62
2016-09-05T04:20:53.791Z,97.95
2016-09-05T04:21:53.787Z,98.52
2016-09-05T04:22:53.808Z,99
2016-09-05T04:23:53.833Z,98.71
2016-09-05T04:24:53.901Z,99.19
2016-09-05T04:25:53.873Z,99.1
2016-09-05T04:26:53.940Z,99.48
2016-09-05T04:27:53.924Z,99.96
2016-09-05T04:28:54.000Z,99.99
2016-09-05T04:29:53.957Z,99.99
2016-09-05T04:30:53.992Z,99.99
2016-09-05T04:31:53.993Z,99.99
2016-09-05T04:32:54.026Z,99.99
2016-09-05T04:33:54.031Z,99.99
2016-09-05T04:34:54.088Z,99.99
2016-09-05T04:35:54.071Z,99.99
2016-09-05T04:36:54.124Z,99.99
2016-09-05T04:37:54.111Z,99.99
2016-09-05T04:38:54.134Z,99.99
2016-09-05T04:39:54.155Z,99.99
2016-09-05T04:40:54.175Z,99.99
2016-09-05T04:41:54.196Z,99.99
2016-09-05T04:42:54.221Z,99.99
2016-09-05T04:43:54.230Z,99.99
2016-09-05T04:44:54.256Z,99.99
2016-09-05T04:45:54.279Z,99.99
2016-09-05T04:46:54.300Z,99.99
2016-09-05T04:47:54.314Z,99.99
2016-09-05T04:48:54.334Z,99.99
2016-09-05T04:49:54.355Z,99.99
2016-09-05T04:50:54.374Z,99.99
2016-09-05T04:51:54.400Z,99.99
2016-09-05T04:52:54.418Z,99.99
2016-09-05T04:53:54.437Z,99.99
2016-09-05T04:54:54.459Z,99.99
2016-09-05T04:55:54.478Z,99.99
2016-09-05T04:56:54.498Z,99.99
2016-09-05T04:57:54.519Z,99.99
2016-09-05T04:58:54.540Z,99.99
2016-09-05T04:59:54.555Z,99.99
2016-09-05T05:00:54.582Z,99.99
2016-09-05T05:01:54.600Z,99.99
2016-09-05T05:02:54.622Z,99.99
2016-09-05T05:03:54.637Z,99.99
2016-09-05T05:04:54.654Z,99.99
2016-09-05T05:05:54.685Z,99.99
2016-09-05T05:06:54.703Z,99.99
2016-09-05T05:07:54.719Z,99.99
2016-09-05T05:08:54.738Z,99.99
2016-09-05T05:09:54.766Z,99.99
2016-09-05T05:10:54.784Z,99.99
2016-09-05T05:11:54.803Z,99.99
2016-09-05T05:12:54.823Z,99.99
2016-09-05T05:13:54.845Z,99.99
2016-09-05T05:14:54.858Z,99.99
2016-09-05T05:15:54.882Z,99.99
2016-09-05T05:16:54.900Z,99.99
2016-09-05T05:17:54.922Z,99.99
2016-09-05T05:18:54.939Z,99.99
2016-09-05T05:19:54.967Z,99.99
2016-09-05T05:20:54.981Z,99.99
2016-09-05T05:21:55.004Z,99.99
2016-09-05T05:22:55.021Z,99.99
2016-09-05T05:23:55.041Z,99.99
2016-09-05T05:24:55.062Z,99.99
2016-09-05T05:25:55.075Z,99.99
2016-09-05T05:26:55.104Z,99.99
2016-09-05T05:27:55.119Z,99.99
2016-09-05T05:28:55.141Z,99.99
2016-09-05T05:29:55.166Z,99.99
2016-09-05T05:30:55.182Z,99.99
2016-09-05T05:31:55.917Z,99.99
2016-09-05T05:32:55.219Z,99.99
2016-09-05T05:33:55.247Z,99.99
2016-09-05T05:34:55.266Z,99.99
2016-09-05T05:35:55.284Z,99.99
2016-09-05T05:36:55.307Z,99.99
2016-09-05T05:37:55.319Z,99.99
2016-09-05T05:38:55.342Z,99.99
2016-09-05T05:39:55.368Z,99.99
2016-09-05T05:40:55.382Z,99.99
2016-09-05T05:41:55.404Z,99.99
2016-09-05T05:42:55.431Z,99.99
2016-09-05T05:43:55.447Z,99.99
2016-09-05T05:44:55.463Z,99.99
2016-09-05T05:45:55.485Z,99.99
2016-09-05T05:46:55.514Z,99.99
2016-09-05T05:47:55.528Z,99.99
2016-09-05T05:48:55.539Z,99.99
2016-09-05T05:49:55.565Z,99.99
2016-09-05T05:50:55.590Z,99.99
2016-09-05T05:51:55.602Z,99.99
2016-09-05T05:52:55.623Z,99.99
2016-09-05T05:53:55.644Z,99.99
2016-09-05T05:54:55.668Z,99.99
2016-09-05T05:55:55.687Z,99.99
2016-09-05T05:56:55.707Z,99.99
2016-09-05T05:57:55.734Z,99.99
2016-09-05T05:58:55.741Z,99.99
2016-09-05T05:59:55.768Z,99.99
2016-09-05T06:00:55.782Z,99.99
2016-09-05T06:01:55.805Z,99.99
2016-09-05T06:02:55.824Z,99.99
2016-09-05T06:03:55.849Z,99.99
2016-09-05T06:04:55.870Z,99.99
2016-09-05T06:05:55.887Z,99.99
2016-09-05T06:06:55.907Z,99.99
2016-09-05T06:07:55.927Z,99.99
2016-09-05T06:08:55.956Z,99.99
2016-09-05T06:09:55.972Z,99.99
2016-09-05T06:10:55.983Z,99.99
2016-09-05T06:11:56.010Z,99.99
2016-09-05T06:12:56.027Z,99.99
2016-09-05T06:13:56.053Z,99.99
2016-09-05T06:14:56.073Z,99.99
2016-09-05T06:15:56.090Z,99.99
2016-09-05T06:16:56.104Z,99.99
2016-09-05T06:17:56.132Z,99.99
2016-09-05T06:18:56.149Z,99.99
2016-09-05T06:19:56.169Z,99.99
2016-09-05T06:20:56.189Z,99.99
2016-09-05T06:21:56.214Z,99.99
2016-09-05T06:22:56.232Z,99.99
2016-09-05T06:23:56.253Z,99.99
2016-09-05T06:24:56.272Z,99.99
2016-09-05T06:25:56.296Z,99.99
2016-09-05T06:26:56.313Z,99.99
2016-09-05T06:27:56.335Z,99.99
2016-09-05T06:28:56.358Z,99.99
2016-09-05T06:29:56.374Z,99.99
2016-09-05T06:30:56.396Z,99.99
2016-09-05T06:31:56.426Z,99.99
2016-09-05T06:32:56.437Z,99.99
2016-09-05T06:33:56.459Z,99.99
2016-09-05T06:34:56.480Z,99.99
2016-09-05T06:35:56.498Z,99.99
2016-09-05T06:36:56.514Z,99.99
2016-09-05T06:37:56.540Z,99.99
2016-09-05T06:38:56.559Z,99.99
2016-09-05T06:39:56.583Z,99.99
2016-09-05T06:40:56.601Z,99.99
2016-09-05T06:41:56.619Z,99.99
2016-09-05T06:42:56.641Z,99.99
2016-09-05T06:43:56.655Z,99.99
2016-09-05T06:44:56.677Z,99.99
2016-09-05T06:45:56.701Z,99.99
2016-09-05T06:46:56.719Z,99.99
2016-09-05T06:47:56.745Z,99.99
2016-09-05T06:48:56.761Z,99.99
2016-09-05T06:49:56.783Z,99.99
2016-09-05T06:50:56.798Z,99.99
2016-09-05T06:51:56.827Z,99.99
2016-09-05T06:52:56.843Z,99.99
2016-09-05T06:53:56.862Z,99.99
2016-09-05T06:54:56.882Z,99.99
2016-09-05T06:55:56.910Z,99.99
2016-09-05T06:56:56.922Z,99.99
2016-09-05T06:57:56.945Z,99.99
2016-09-05T06:58:56.965Z,99.99
2016-09-05T06:59:56.988Z,99.99
2016-09-05T07:00:57.001Z,99.99
2016-09-05T07:01:57.030Z,99.99
2016-09-05T07:02:57.051Z,99.99
2016-09-05T07:03:57.068Z,99.99
2016-09-05T07:04:57.085Z,99.99
2016-09-05T07:05:57.108Z,99.99
2016-09-05T07:06:57.135Z,99.99
2016-09-05T07:07:57.146Z,99.99
2016-09-05T07:08:57.186Z,99.99
2016-09-05T07:09:57.192Z,99.99
2016-09-05T07:10:57.213Z,99.99
2016-09-05T07:11:57.231Z,99.99
2016-09-05T07:12:57.254Z,99.99
2016-09-05T07:13:57.276Z,99.99
2016-09-05T07:14:57.293Z,99.99
2016-09-05T07:15:57.317Z,99.99
2016-09-05T07:16:57.339Z,99.99
2016-09-05T07:17:57.363Z,99.99
2016-09-05T07:18:57.377Z,99.99
2016-09-05T07:19:57.403Z,99.99
2016-09-05T07:20:57.418Z,99.99
2016-09-05T07:21:57.438Z,99.99
2016-09-05T07:22:57.457Z,99.99
2016-09-05T07:23:57.476Z,99.99
2016-09-05T07:24:57.502Z,99.99
2016-09-05T07:25:57.535Z,99.99
2016-09-05T07:26:57.545Z,99.99
2016-09-05T07:27:57.565Z,99.99
2016-09-05T07:28:57.583Z,99.99
2016-09-05T07:29:57.603Z,99.99
2016-09-05T07:30:57.628Z,99.99
2016-09-05T07:31:57.642Z,99.87
2016-09-05T07:32:57.665Z,99.99
2016-09-05T07:33:57.687Z,99.99
2016-09-05T07:34:57.704Z,99.99
2016-09-05T07:35:57.735Z,99.99
2016-09-05T07:36:57.743Z,99.99
2016-09-05T07:37:57.768Z,99.96
2016-09-05T07:38:57.785Z,99.99
2016-09-05T07:39:57.814Z,99.99
2016-09-05T07:40:57.828Z,99.99
2016-09-05T07:41:57.850Z,99.99
2016-09-05T07:42:57.870Z,99.99
2016-09-05T07:43:57.895Z,99.99
2016-09-05T07:44:57.921Z,99.99
2016-09-05T07:45:57.937Z,99.99
2016-09-05T07:46:57.952Z,99.99
2016-09-05T07:47:57.972Z,99.72
2016-09-05T07:48:57.996Z,99.99
2016-09-05T07:49:58.017Z,99.99
2016-09-05T07:50:58.042Z,99.99
2016-09-05T07:51:58.055Z,99.99
2016-09-05T07:52:58.087Z,99.99
2016-09-05T07:53:58.105Z,99.29
2016-09-05T07:54:58.125Z,99.48
2016-09-05T07:55:58.139Z,99.48
2016-09-05T07:56:58.166Z,99.96
2016-09-05T07:57:58.184Z,99.77
2016-09-05T07:58:58.206Z,99.99
2016-09-05T07:59:58.231Z,99.99
2016-09-05T08:00:58.247Z,99.99
2016-09-05T08:01:58.272Z,99.87
2016-09-05T08:02:58.300Z,99.99
2016-09-05T08:03:58.305Z,99.87
2016-09-05T08:04:58.331Z,99.99
2016-09-05T08:05:58.352Z,99.77
2016-09-05T08:06:58.372Z,99.01
2016-09-05T08:07:58.384Z,98.62
2016-09-05T08:08:58.415Z,98.14
2016-09-05T08:09:58.435Z,98.52
2016-09-05T08:10:58.451Z,98.52
2016-09-05T08:11:58.474Z,98.81
2016-09-05T08:12:58.495Z,99.19
2016-09-05T08:13:58.516Z,99.01
2016-09-05T08:14:58.532Z,99.01
2016-09-05T08:15:58.558Z,98.72
2016-09-05T08:16:58.581Z,98.05
2016-09-05T08:17:58.603Z,98.14
2016-09-05T08:18:58.621Z,97.71
2016-09-05T08:19:58.643Z,98.48
2016-09-05T08:20:58.664Z,98.28
2016-09-05T08:21:58.681Z,98.48
2016-09-05T08:22:58.705Z,98.38
2016-09-05T08:23:58.730Z,97.81
2016-09-05T08:24:58.754Z,97.42
2016-09-05T08:25:58.763Z,96.75
2016-09-05T08:26:58.805Z,97.14
2016-09-05T08:27:58.809Z,96.08
2016-09-05T08:28:58.834Z,95.75
2016-09-05T08:29:58.857Z,95.36
2016-09-05T08:30:58.871Z,94.59
2016-09-05T08:31:58.897Z,94.31
2016-09-05T08:32:58.909Z,94.49
2016-09-05T08:33:58.937Z,94.21
2016-09-05T08:34:58.956Z,93.44
2016-09-05T08:35:58.979Z,92.48
2016-09-05T08:36:59.000Z,92.86
2016-09-05T08:37:59.022Z,93.63
2016-09-05T08:38:59.048Z,93.54
2016-09-05T08:39:59.065Z,94.02
2016-09-05T08:40:59.093Z,94.02
2016-09-05T08:41:59.109Z,94.21
2016-09-05T08:42:59.129Z,93.82
2016-09-05T08:43:59.143Z,94.12
2016-09-05T08:44:59.172Z,94.21
2016-09-05T08:45:59.198Z,93.44
2016-09-05T08:46:59.220Z,92.29
2016-09-05T08:47:59.231Z,91.62
2016-09-05T08:48:59.255Z,91.47
2016-09-05T08:49:59.284Z,91.76
2016-09-05T08:50:59.303Z,91.76
2016-09-05T08:51:59.329Z,91.57
2016-09-05T08:52:59.347Z,90.61
2016-09-05T08:53:59.369Z,89.94
2016-09-05T08:54:59.387Z,90.03
2016-09-05T08:55:59.405Z,89.94
2016-09-05T08:56:59.430Z,88.79
2016-09-05T08:57:59.450Z,88.31
2016-09-05T08:58:59.470Z,87.82
2016-09-05T08:59:59.489Z,87.73
2016-09-05T09:00:59.517Z,87.39
2016-09-05T09:01:59.533Z,87.1
2016-09-05T09:02:59.553Z,86.43
2016-09-05T09:03:59.582Z,85.75
2016-09-05T09:04:59.601Z,85.89
2016-09-05T09:05:59.627Z,85.99
2016-09-05T09:06:59.648Z,85.41
2016-09-05T09:07:59.671Z,85.13
2016-09-05T09:08:59.691Z,83.59
2016-09-05T09:09:59.715Z,83.15
2016-09-05T09:10:59.731Z,82.86
2016-09-05T09:11:59.756Z,82.57
2016-09-05T09:12:59.776Z,81.04
2016-09-05T09:13:59.794Z,80.79
2016-09-05T09:14:59.826Z,80.69
2016-09-05T09:15:59.842Z,80.98
2016-09-05T09:16:59.868Z,79.58
2016-09-05T09:17:59.903Z,79.86
2016-09-05T09:18:59.909Z,78.71
2016-09-05T09:19:59.939Z,79.1
2016-09-05T09:20:59.952Z,78.71
2016-09-05T09:21:59.985Z,78.61
2016-09-05T09:23:00.001Z,78.33
2016-09-05T09:24:00.019Z,78.13
2016-09-05T09:25:00.041Z,78.42
2016-09-05T09:26:00.069Z,78
2016-09-05T09:27:00.097Z,79.15
2016-09-05T09:28:00.110Z,79.05
2016-09-05T09:29:00.139Z,79.15
2016-09-05T09:30:00.170Z,79.19
2016-09-05T09:31:00.186Z,77.56
2016-09-05T09:32:00.201Z,78.33
2016-09-05T09:33:00.226Z,77.26
2016-09-05T09:34:00.250Z,76.69
2016-09-05T09:35:00.278Z,77.46
2016-09-05T09:36:00.292Z,77.75
2016-09-05T09:37:00.317Z,77.46
2016-09-05T09:38:00.340Z,77.94
2016-09-05T09:39:00.368Z,78.03
2016-09-05T09:40:00.389Z,78.28
2016-09-05T09:41:00.404Z,78.28
2016-09-05T09:42:00.434Z,78.28
2016-09-05T09:43:00.457Z,78.38
2016-09-05T09:44:00.471Z,79.25
2016-09-05T09:45:00.503Z,78.77
2016-09-05T09:46:00.519Z,79.25
2016-09-05T09:47:00.544Z,78.73
2016-09-05T09:48:00.566Z,78.63
2016-09-05T09:49:00.589Z,78.53
2016-09-05T09:50:00.619Z,78.53
2016-09-05T09:51:00.641Z,78.38
2016-09-05T09:52:00.652Z,77.81
2016-09-05T09:53:00.676Z,77.71
2016-09-05T09:54:00.705Z,77.08
2016-09-05T09:55:00.722Z,76.78
2016-09-05T09:56:00.749Z,76.88
2016-09-05T09:57:00.770Z,76.5
2016-09-05T09:58:00.802Z,76.21
2016-09-05T09:59:00.820Z,75.63
2016-09-05T10:00:00.840Z,75.92
2016-09-05T10:01:00.862Z,74.76
2016-09-05T10:02:00.878Z,74.76
2016-09-05T10:03:00.902Z,74.76
2016-09-05T10:04:00.931Z,74.76
2016-09-05T10:05:00.952Z,74.48
2016-09-05T10:06:00.969Z,74.76
2016-09-05T10:07:00.991Z,74.09
2016-09-05T10:08:01.022Z,73.07
2016-09-05T10:09:01.035Z,73.07
2016-09-05T10:10:01.073Z,73.46
2016-09-05T10:11:01.096Z,73.36
2016-09-05T10:12:01.113Z,73.26
2016-09-05T10:13:01.131Z,73.65
2016-09-05T10:14:01.156Z,73.36
2016-09-05T10:15:01.179Z,74.13
2016-09-05T10:16:01.200Z,74.61
2016-09-05T10:17:01.223Z,74.13
2016-09-05T10:18:01.243Z,75.19
2016-09-05T10:19:01.275Z,74.86
2016-09-05T10:20:01.295Z,75.24
2016-09-05T10:21:01.317Z,75.73
2016-09-05T10:22:01.338Z,75.54
2016-09-05T10:23:01.362Z,74.9
2016-09-05T10:24:01.381Z,74.09
2016-09-05T10:25:01.410Z,74.03
2016-09-05T10:26:01.433Z,74.13
2016-09-05T10:27:01.453Z,74.13
2016-09-05T10:28:01.481Z,74.22
2016-09-05T10:29:01.495Z,74.13
2016-09-05T10:30:01.533Z,73.65
2016-09-05T10:31:01.538Z,74.22
2016-09-05T10:32:01.563Z,75.67
2016-09-05T10:33:01.591Z,75.54
2016-09-05T10:34:01.612Z,76.31
2016-09-05T10:35:01.632Z,75.34
2016-09-05T10:36:01.657Z,75.44
2016-09-05T10:37:01.686Z,74.67
2016-09-05T10:38:01.704Z,74.86
2016-09-05T10:39:01.724Z,75.44
2016-09-05T10:40:01.746Z,75.63
2016-09-05T10:41:01.770Z,76.4
2016-09-05T10:42:01.795Z,76.11
2016-09-05T10:43:01.813Z,76.69
2016-09-05T10:44:01.834Z,77.08
2016-09-05T10:45:01.862Z,77.71
2016-09-05T10:46:01.889Z,78
2016-09-05T10:47:01.908Z,78.28
2016-09-05T10:48:01.932Z,77.9
2016-09-05T10:49:01.953Z,78.86
2016-09-05T10:50:01.970Z,79.05
2016-09-05T10:51:01.995Z,78.96
2016-09-05T10:52:02.019Z,78.86
2016-09-05T10:53:02.048Z,78.96
2016-09-05T10:54:02.062Z,78.86
2016-09-05T10:55:02.090Z,79.15
2016-09-05T10:56:02.107Z,79.44
2016-09-05T10:57:02.128Z,79.25
2016-09-05T10:58:02.159Z,79.73
2016-09-05T10:59:02.209Z,80.11
2016-09-05T11:00:02.203Z,79.92
2016-09-05T11:01:02.220Z,80.02
2016-09-05T11:02:02.251Z,80.3
2016-09-05T11:03:02.272Z,80.36
2016-09-05T11:04:02.290Z,80.36
2016-09-05T11:05:02.308Z,80.46
2016-09-05T11:06:02.329Z,80.65
2016-09-05T11:07:02.360Z,79.6
2016-09-05T11:08:02.381Z,79.5
2016-09-05T11:09:02.400Z,79.69
2016-09-05T11:10:02.423Z,79.3
2016-09-05T11:11:02.449Z,79.92
2016-09-05T11:12:02.479Z,79.88
2016-09-05T11:13:02.494Z,79.53
2016-09-05T11:14:02.514Z,80.11
2016-09-05T11:15:02.541Z,80.3
2016-09-05T11:16:02.551Z,80.02
2016-09-05T11:17:02.581Z,80.79
2016-09-05T11:18:02.611Z,80.4
2016-09-05T11:19:02.631Z,80.21
2016-09-05T11:20:02.644Z,80.11
2016-09-05T11:21:02.667Z,79.82
2016-09-05T11:22:02.688Z,80.6
2016-09-05T11:23:02.713Z,80.88
2016-09-05T11:24:02.738Z,80.88
2016-09-05T11:25:02.758Z,80.6
2016-09-05T11:26:02.779Z,80.6
2016-09-05T11:27:02.800Z,80.3
2016-09-05T11:28:02.824Z,80.3
2016-09-05T11:29:02.854Z,80.21
2016-09-05T11:30:02.868Z,79.73
2016-09-05T11:31:02.890Z,79.63
2016-09-05T11:32:02.911Z,80.21
2016-09-05T11:33:02.942Z,79.67
2016-09-05T11:34:02.957Z,79.73
2016-09-05T11:35:02.983Z,80.3
2016-09-05T11:36:03.001Z,80.5
2016-09-05T11:37:03.036Z,80.5
2016-09-05T11:38:03.050Z,79.44
2016-09-05T11:39:03.069Z,80.11
2016-09-05T11:40:03.096Z,79.73
2016-09-05T11:41:03.120Z,79.73
2016-09-05T11:42:03.142Z,79.92
2016-09-05T11:43:03.154Z,79.53
2016-09-05T11:44:03.188Z,80.02
2016-09-05T11:45:03.201Z,79.63
2016-09-05T11:46:03.231Z,79.73
2016-09-05T11:47:03.247Z,79.82
2016-09-05T11:48:03.269Z,80.4
2016-09-05T11:49:03.291Z,79.92
2016-09-05T11:50:03.315Z,79.53
2016-09-05T11:51:03.337Z,79.15
2016-09-05T11:52:03.365Z,78.96
2016-09-05T11:53:03.381Z,78.48
2016-09-05T11:54:03.402Z,78.58
2016-09-05T11:55:03.435Z,78.42
2016-09-05T11:56:03.450Z,78.81
2016-09-05T11:57:03.471Z,78.42
2016-09-05T11:58:03.498Z,78.13
2016-09-05T11:59:03.516Z,78.13
2016-09-05T12:01:03.564Z,77.75
2016-09-05T12:02:03.598Z,78.13
2016-09-05T12:03:03.611Z,78.33
2016-09-05T12:04:03.634Z,77.94
2016-09-05T12:05:03.655Z,77.75
2016-09-05T12:06:03.690Z,77.65
2016-09-05T12:07:03.697Z,77.46
2016-09-05T12:08:03.716Z,77.26
2016-09-05T12:09:03.749Z,77.56
2016-09-05T12:10:03.771Z,76.88
2016-09-05T12:11:03.786Z,77.26
2016-09-05T12:12:03.807Z,77.46
2016-09-05T12:13:03.837Z,77.08
2016-09-05T12:14:03.856Z,77.08
2016-09-05T12:15:03.877Z,77.84
2016-09-05T12:16:03.898Z,77.75
2016-09-05T12:17:03.929Z,77.08
2016-09-05T12:18:03.948Z,77.21
2016-09-05T12:19:03.969Z,77.31
2016-09-05T12:20:03.994Z,76.34
2016-09-05T12:21:04.021Z,76.63
2016-09-05T12:22:04.035Z,75.86
2016-09-05T12:23:04.066Z,75.48
2016-09-05T12:24:04.078Z,74.99
2016-09-05T12:25:04.112Z,74.51
2016-09-05T12:26:04.131Z,74.55
2016-09-05T12:27:04.156Z,74.16
2016-09-05T12:28:04.176Z,74.26
2016-09-05T12:29:04.201Z,73.1
2016-09-05T12:30:04.224Z,72.63
2016-09-05T12:31:04.241Z,72.95
2016-09-05T12:32:04.271Z,71.98
2016-09-05T12:33:04.289Z,71.22
2016-09-05T12:34:04.319Z,71.41
2016-09-05T12:35:04.331Z,71.5
2016-09-05T12:36:04.357Z,71.98
2016-09-05T12:37:04.375Z,72.18
2016-09-05T12:38:04.406Z,71.6
2016-09-05T12:39:04.432Z,72.37
2016-09-05T12:40:04.449Z,72.27
2016-09-05T12:41:04.475Z,72.95
2016-09-05T12:42:04.494Z,73.1
2016-09-05T12:43:04.519Z,73.68
2016-09-05T12:44:04.541Z,73.88
2016-09-05T12:45:04.564Z,74.55
2016-09-05T12:46:04.591Z,74.26
2016-09-05T12:47:04.610Z,74.45
2016-09-05T12:48:04.635Z,75.23
2016-09-05T12:49:04.660Z,74.8
2016-09-05T12:50:04.683Z,75.32
2016-09-05T12:51:04.701Z,75.57
2016-09-05T12:52:04.729Z,75.86
2016-09-05T12:53:04.749Z,75.67
2016-09-05T12:54:04.774Z,75.76
2016-09-05T12:55:04.793Z,75.28
2016-09-05T12:56:04.822Z,75.42
2016-09-05T12:57:04.840Z,75.03